Talos — SWST — position and weather

sailwx.info

Track history (hours):
 
Tides and Currents Weather Stations Pressure Air Temp Water Temp Dewpoint Dewpoint Depression Visibility Wind Speed Wind Dir Waves Ship Positions

Talos

Last reported at 2018-Jun-25 00:30 UTC. Time now 2018-Jun-25 00:41 UTC.
Position N 37°57' E 023°36'.

Length 124 m.

Type: Ship. MMSI: 239786000.

Date/timePositionNaut miles runAvg speedWind from/ knotsBaromVisibWave heightAir tempDewpointWater temp
2018-Jun-25 00:30N 37°57' E 023°36'0 0.0
2018-Jun-24 23:58N 37°57' E 023°36'0 0.0
2018-Jun-24 23:28N 37°57' E 023°36'0 0.0
2018-Jun-24 22:58N 37°57' E 023°36'0 0.0
2018-Jun-24 22:30N 37°57' E 023°36'0 0.0
2018-Jun-24 21:57N 37°57' E 023°36'0 0.0
2018-Jun-24 21:27N 37°57' E 023°36'0 0.0
2018-Jun-24 21:00N 37°57' E 023°36'0 0.0
2018-Jun-24 20:28N 37°57' E 023°36'0 0.0
2018-Jun-24 19:59N 37°57' E 023°36'0 0.0
2018-Jun-24 19:25N 37°57' E 023°36'0 0.0
2018-Jun-24 18:53N 37°57' E 023°36'0 0.0
2018-Jun-24 18:23N 37°57' E 023°36'0 0.0
2018-Jun-24 18:00N 37°57' E 023°36'0 0.0
2018-Jun-24 17:25N 37°57' E 023°36'0 0.0
2018-Jun-24 17:00N 37°57' E 023°36'0 0.0
2018-Jun-24 16:27N 37°57' E 023°36'0 0.0
2018-Jun-24 15:58N 37°57' E 023°36'0 0.0
2018-Jun-24 15:30N 37°57' E 023°36'0 0.0
2018-Jun-24 15:00N 37°57' E 023°36'0 0.0
2018-Jun-24 14:28N 37°57' E 023°36'0 0.0
2018-Jun-24 14:00N 37°57' E 023°36'0 0.0
2018-Jun-24 13:25N 37°57' E 023°36'0 0.0
2018-Jun-24 12:54N 37°57' E 023°36'0 0.0
2018-Jun-24 12:29N 37°57' E 023°36'0 0.0
2018-Jun-24 11:59N 37°57' E 023°36'0 0.0
2018-Jun-24 11:28N 37°57' E 023°36'0 0.0
2018-Jun-24 10:55N 37°57' E 023°36'0 0.0
2018-Jun-24 10:28N 37°57' E 023°36'0 0.0
2018-Jun-24 09:58N 37°57' E 023°36'0 0.0
2018-Jun-24 09:27N 37°57' E 023°36'0 0.0
2018-Jun-24 08:59N 37°57' E 023°36'0 0.0
2018-Jun-24 08:28N 37°57' E 023°36'0 0.0
2018-Jun-24 07:59N 37°57' E 023°36'0 0.0
2018-Jun-24 07:26N 37°57' E 023°36'0 0.0
2018-Jun-24 07:00N 37°57' E 023°36'0 0.0
2018-Jun-24 06:28N 37°57' E 023°36'0 0.0
2018-Jun-24 06:00N 37°57' E 023°36'0 0.0
2018-Jun-24 05:30N 37°57' E 023°36'4 7.1
2018-Jun-24 05:00N 37°54' E 023°38'612.7
2018-Jun-24 04:30N 37°48' E 023°41'31 1.0
2018-Jun-22 21:01N 37°17' E 023°39'1213.3
2018-Jun-22 20:06N 37°29' E 023°41'113.2
2018-Jun-22 20:00N 37°30' E 023°41'713.4
2018-Jun-22 19:30N 37°37' E 023°41'612.9
2018-Jun-22 19:00N 37°43' E 023°39'612.9
2018-Jun-22 18:30N 37°50' E 023°37'612.9
2018-Jun-22 18:00N 37°56' E 023°36'1 2.6
2018-Jun-22 17:30N 37°57' E 023°36'0 0.0
2018-Jun-22 16:58N 37°57' E 023°36'0 0.0
2018-Jun-22 16:23N 37°57' E 023°36'0 0.0
2018-Jun-22 15:56N 37°57' E 023°36'0 0.0
2018-Jun-22 15:29N 37°57' E 023°36'0 0.0
2018-Jun-22 14:53N 37°57' E 023°36'0 0.0
2018-Jun-22 14:28N 37°57' E 023°36'0 0.0
2018-Jun-22 13:57N 37°57' E 023°36'0 0.0
2018-Jun-22 13:30N 37°57' E 023°36'0 0.0
2018-Jun-22 13:00N 37°57' E 023°36'0 0.0
2018-Jun-22 12:30N 37°57' E 023°36'0 0.0
2018-Jun-22 12:00N 37°57' E 023°36'0 0.0
2018-Jun-22 11:24N 37°57' E 023°36'0 0.0
2018-Jun-22 11:00N 37°57' E 023°36'0 0.0
2018-Jun-22 10:30N 37°57' E 023°36'0 0.0
2018-Jun-22 09:59N 37°57' E 023°36'0 0.0
2018-Jun-22 09:29N 37°57' E 023°36'0 0.0
2018-Jun-22 09:00N 37°57' E 023°36'0 0.0
2018-Jun-22 08:29N 37°57' E 023°36'0 0.0
2018-Jun-22 07:58N 37°57' E 023°36'0 0.0
2018-Jun-22 07:25N 37°57' E 023°36'0 0.0
2018-Jun-22 07:00N 37°57' E 023°36'0 0.0
2018-Jun-22 06:30N 37°57' E 023°36'0 0.0
2018-Jun-22 06:00N 37°57' E 023°36'0 0.0
2018-Jun-22 05:23N 37°57' E 023°36'0 0.8
2018-Jun-22 05:00N 37°57' E 023°36'612.3
2018-Jun-22 04:31N 37°51' E 023°39'18 0.6
2018-Jun-20 20:06N 37°34' E 023°43'113.1
2018-Jun-20 20:00N 37°35' E 023°42'713.1
2018-Jun-20 19:30N 37°41' E 023°41'713.3
2018-Jun-20 19:00N 37°48' E 023°38'713.2
2018-Jun-20 18:30N 37°54' E 023°36'3 6.4
2018-Jun-20 18:00N 37°57' E 023°36'0 0.0
2018-Jun-20 17:30N 37°57' E 023°36'0 0.0
2018-Jun-20 16:55N 37°57' E 023°36'0 0.0
2018-Jun-20 16:30N 37°57' E 023°36'0 0.0
2018-Jun-20 15:57N 37°57' E 023°36'0 0.0
2018-Jun-20 15:26N 37°57' E 023°36'0 0.0
2018-Jun-20 14:58N 37°57' E 023°36'0 0.0
2018-Jun-20 14:27N 37°57' E 023°36'0 0.0
2018-Jun-20 13:58N 37°57' E 023°36'0 0.0
2018-Jun-20 13:30N 37°57' E 023°36'0 0.0
2018-Jun-20 12:53N 37°57' E 023°36'0 0.0
2018-Jun-20 12:28N 37°57' E 023°36'0 0.0
2018-Jun-20 12:00N 37°57' E 023°36'0 0.0
2018-Jun-20 11:26N 37°57' E 023°36'0 0.0
2018-Jun-20 11:00N 37°57' E 023°36'0 0.0
2018-Jun-20 10:23N 37°57' E 023°36'0 0.0
2018-Jun-20 09:59N 37°57' E 023°36'0 0.0
2018-Jun-20 09:24N 37°57' E 023°36'0 0.0
2018-Jun-20 08:58N 37°57' E 023°36'0 0.0
2018-Jun-20 08:29N 37°57' E 023°36'0 0.0
2018-Jun-20 08:00N 37°57' E 023°36'0 0.0
2018-Jun-20 07:25N 37°57' E 023°36'0 0.0
2018-Jun-20 07:00N 37°57' E 023°36'0 0.3
2018-Jun-20 06:30N 37°57' E 023°36'5 9.9
2018-Jun-20 06:00N 37°53' E 023°38'713.3
2018-Jun-20 05:30N 37°47' E 023°42'5112.6
2018-Jun-20 01:25N 37°31' E 024°44'613.8
2018-Jun-20 00:59N 37°31' E 024°51'611.5
2018-Jun-20 00:27N 37°27' E 024°57'6 7.1
2018-Jun-19 23:35N 37°30' E 025°04'113.5
2018-Jun-19 23:30N 37°30' E 025°05'3 6.7
2018-Jun-19 23:00N 37°32' E 025°09'612.9
2018-Jun-19 22:30N 37°29' E 025°16'3 5.0
2018-Jun-19 21:58N 37°28' E 025°19'2 4.1
2018-Jun-19 21:30N 37°27' E 025°18'612.6
2018-Jun-19 21:00N 37°20' E 025°16'612.9
2018-Jun-19 20:30N 37°14' E 025°13'5 3.1
2018-Jun-19 18:49N 37°09' E 025°13'412.9
2018-Jun-19 18:30N 37°09' E 025°18'5 9.2
2018-Jun-19 18:00N 37°06' E 025°22'3 5.9
2018-Jun-19 17:30N 37°05' E 025°19'5 0.4
2018-Jun-19 02:16N 36°59' E 025°19'313.2
2018-Jun-19 02:00N 37°03' E 025°18'5 9.5
2018-Jun-19 01:30N 37°06' E 025°22'4 9.2
2018-Jun-19 01:00N 37°10' E 025°19'7 3.5
2018-Jun-18 23:03N 37°13' E 025°11'113.4
2018-Jun-18 22:58N 37°14' E 025°12'613.5
2018-Jun-18 22:30N 37°19' E 025°15'713.5
2018-Jun-18 22:01N 37°26' E 025°17'3 5.1
2018-Jun-18 21:30N 37°28' E 025°19'611.5
2018-Jun-18 21:00N 37°30' E 025°13'4 7.2
2018-Jun-18 20:29N 37°32' E 025°09'1012.8
2018-Jun-18 19:41N 37°26' E 024°58'1 2.1
2018-Jun-18 19:24N 37°26' E 024°57'710.7
2018-Jun-18 18:45N 37°31' E 024°51'313.0
2018-Jun-18 18:30N 37°31' E 024°47'5112.8
2018-Jun-18 14:29N 37°40' E 023°43'613.0
2018-Jun-18 14:00N 37°45' E 023°39'613.0
2018-Jun-18 13:31N 37°51' E 023°37'611.6
2018-Jun-18 13:00N 37°57' E 023°36'0 0.2
2018-Jun-18 12:27N 37°57' E 023°36'0 0.0
2018-Jun-18 11:59N 37°57' E 023°36'0 0.0
2018-Jun-18 11:24N 37°57' E 023°36'0 0.0
2018-Jun-18 10:58N 37°57' E 023°36'0 0.0
2018-Jun-18 10:29N 37°57' E 023°36'0 0.0
2018-Jun-18 09:58N 37°57' E 023°36'0 0.0
2018-Jun-18 09:27N 37°57' E 023°36'0 0.0
2018-Jun-18 08:59N 37°57' E 023°36'0 0.0
2018-Jun-18 08:28N 37°57' E 023°36'0 0.0
2018-Jun-18 07:58N 37°57' E 023°36'0 0.0
2018-Jun-18 07:29N 37°57' E 023°36'0 0.0
2018-Jun-18 06:57N 37°57' E 023°36'0 0.0
2018-Jun-18 06:17N 37°57' E 023°36'0 0.0
2018-Jun-18 05:55N 37°57' E 023°36'0 0.0
2018-Jun-18 05:28N 37°57' E 023°36'0 0.0
2018-Jun-18 05:00N 37°57' E 023°36'0 0.0
2018-Jun-18 04:28N 37°57' E 023°36'0 0.0
2018-Jun-18 03:56N 37°57' E 023°36'0 0.0
2018-Jun-18 03:25N 37°57' E 023°36'0 0.0
2018-Jun-18 02:59N 37°57' E 023°36'0 0.0
2018-Jun-18 02:29N 37°57' E 023°36'0 0.0
2018-Jun-18 01:59N 37°57' E 023°36'0 0.0
2018-Jun-18 01:26N 37°57' E 023°36'0 0.0
2018-Jun-18 00:59N 37°57' E 023°36'0 0.0
2018-Jun-18 00:29N 37°57' E 023°36'0 0.0
2018-Jun-17 23:59N 37°57' E 023°36'0 0.0
2018-Jun-17 23:24N 37°57' E 023°36'0 0.0
2018-Jun-17 23:00N 37°57' E 023°36'0 0.0
2018-Jun-17 22:28N 37°57' E 023°36'0 0.0
2018-Jun-17 21:57N 37°57' E 023°36'0 0.0
2018-Jun-17 21:30N 37°57' E 023°36'0 0.0
2018-Jun-17 20:58N 37°57' E 023°36'0 0.0
2018-Jun-17 20:29N 37°57' E 023°36'0 0.0
2018-Jun-17 19:56N 37°57' E 023°36'0 0.0
2018-Jun-17 19:29N 37°57' E 023°36'0 0.0
2018-Jun-17 18:59N 37°57' E 023°36'0 0.0
2018-Jun-17 18:30N 37°57' E 023°36'0 0.0
2018-Jun-17 17:59N 37°57' E 023°36'0 0.0
2018-Jun-17 17:24N 37°57' E 023°36'0 0.0
2018-Jun-17 16:54N 37°57' E 023°36'0 0.0
2018-Jun-17 16:28N 37°57' E 023°36'0 0.0
2018-Jun-17 15:59N 37°57' E 023°36'0 0.0
2018-Jun-17 15:24N 37°57' E 023°36'0 0.0
2018-Jun-17 14:57N 37°57' E 023°36'0 0.0
2018-Jun-17 14:30N 37°57' E 023°36'0 0.0
2018-Jun-17 13:53N 37°57' E 023°36'0 0.0
2018-Jun-17 13:23N 37°57' E 023°36'0 0.0
2018-Jun-17 12:59N 37°57' E 023°36'0 0.0
2018-Jun-17 12:30N 37°57' E 023°36'0 0.0
2018-Jun-17 11:56N 37°57' E 023°36'0 0.0
2018-Jun-17 11:25N 37°57' E 023°36'0 0.0
2018-Jun-17 11:00N 37°57' E 023°36'0 0.0
2018-Jun-17 10:30N 37°57' E 023°36'0 0.0
2018-Jun-17 09:59N 37°57' E 023°36'0 0.0
2018-Jun-17 09:30N 37°57' E 023°36'0 0.0
2018-Jun-17 08:58N 37°57' E 023°36'0 0.0
2018-Jun-17 08:30N 37°57' E 023°36'0 0.0
2018-Jun-17 07:59N 37°57' E 023°36'0 0.0
2018-Jun-17 07:29N 37°57' E 023°36'0 0.0
2018-Jun-17 07:00N 37°57' E 023°36'0 0.0
2018-Jun-17 06:29N 37°57' E 023°36'0 0.8
2018-Jun-17 06:00N 37°57' E 023°36'713.0
2018-Jun-17 05:30N 37°51' E 023°39'13 0.4
2018-Jun-15 19:38N 37°38' E 023°42'313.5
2018-Jun-15 19:23N 37°41' E 023°41'513.4
2018-Jun-15 19:00N 37°46' E 023°39'612.9
2018-Jun-15 18:30N 37°52' E 023°37'510.5
2018-Jun-15 18:00N 37°57' E 023°36'0 0.2
2018-Jun-15 17:30N 37°57' E 023°36'0 0.0
2018-Jun-15 17:00N 37°57' E 023°36'0 0.0
2018-Jun-15 16:28N 37°57' E 023°36'0 0.0
2018-Jun-15 15:59N 37°57' E 023°36'0 0.0
2018-Jun-15 15:29N 37°57' E 023°36'0 0.0
2018-Jun-15 15:00N 37°57' E 023°36'0 0.0
2018-Jun-15 14:30N 37°57' E 023°36'0 0.0
2018-Jun-15 13:57N 37°57' E 023°36'0 0.0
2018-Jun-15 13:25N 37°57' E 023°36'0 0.0
2018-Jun-15 13:00N 37°57' E 023°36'0 0.0
2018-Jun-15 12:27N 37°57' E 023°36'0 0.0
2018-Jun-15 11:59N 37°57' E 023°36'0 0.0
2018-Jun-15 11:30N 37°57' E 023°36'0 0.0
2018-Jun-15 10:57N 37°57' E 023°36'0 0.0
2018-Jun-15 10:28N 37°57' E 023°36'0 0.0
2018-Jun-15 09:55N 37°57' E 023°36'0 0.0
2018-Jun-15 09:26N 37°57' E 023°36'0 0.0
2018-Jun-15 08:59N 37°57' E 023°36'0 0.0
2018-Jun-15 08:30N 37°57' E 023°36'0 0.0
2018-Jun-15 07:56N 37°57' E 023°36'0 0.0
2018-Jun-15 07:23N 37°57' E 023°36'0 0.0
2018-Jun-15 06:54N 37°57' E 023°36'0 0.0
2018-Jun-15 06:17N 37°57' E 023°36'0 0.0
2018-Jun-15 06:00N 37°57' E 023°36'0 0.0
2018-Jun-15 05:29N 37°57' E 023°36'0 0.3
2018-Jun-15 05:00N 37°57' E 023°36'611.7
2018-Jun-15 04:30N 37°52' E 023°39'  
Track history (hours):
 
Tides and Currents Weather Stations Pressure Air Temp Water Temp Dewpoint Dewpoint Depression Visibility Wind Speed Wind Dir Waves Ship Positions

Talos

Last reported at 2018-Jun-25 00:30 UTC. Time now 2018-Jun-25 00:41 UTC.
Position N 37°57' E 023°36'.

Length 124 m.

Type: Ship. MMSI: 239786000.

Date/timePositionNaut miles runAvg speedWind from/ knotsBaromVisibWave heightAir tempDewpointWater temp
2018-Jun-25 00:30N 37°57' E 023°36'0 0.0
2018-Jun-24 23:58N 37°57' E 023°36'0 0.0
2018-Jun-24 23:28N 37°57' E 023°36'0 0.0
2018-Jun-24 22:58N 37°57' E 023°36'0 0.0
2018-Jun-24 22:30N 37°57' E 023°36'0 0.0
2018-Jun-24 21:57N 37°57' E 023°36'0 0.0
2018-Jun-24 21:27N 37°57' E 023°36'0 0.0
2018-Jun-24 21:00N 37°57' E 023°36'0 0.0
2018-Jun-24 20:28N 37°57' E 023°36'0 0.0
2018-Jun-24 19:59N 37°57' E 023°36'0 0.0
2018-Jun-24 19:25N 37°57' E 023°36'0 0.0
2018-Jun-24 18:53N 37°57' E 023°36'0 0.0
2018-Jun-24 18:23N 37°57' E 023°36'0 0.0
2018-Jun-24 18:00N 37°57' E 023°36'0 0.0
2018-Jun-24 17:25N 37°57' E 023°36'0 0.0
2018-Jun-24 17:00N 37°57' E 023°36'0 0.0
2018-Jun-24 16:27N 37°57' E 023°36'0 0.0
2018-Jun-24 15:58N 37°57' E 023°36'0 0.0
2018-Jun-24 15:30N 37°57' E 023°36'0 0.0
2018-Jun-24 15:00N 37°57' E 023°36'0 0.0
2018-Jun-24 14:28N 37°57' E 023°36'0 0.0
2018-Jun-24 14:00N 37°57' E 023°36'0 0.0
2018-Jun-24 13:25N 37°57' E 023°36'0 0.0
2018-Jun-24 12:54N 37°57' E 023°36'0 0.0
2018-Jun-24 12:29N 37°57' E 023°36'0 0.0
2018-Jun-24 11:59N 37°57' E 023°36'0 0.0
2018-Jun-24 11:28N 37°57' E 023°36'0 0.0
2018-Jun-24 10:55N 37°57' E 023°36'0 0.0
2018-Jun-24 10:28N 37°57' E 023°36'0 0.0
2018-Jun-24 09:58N 37°57' E 023°36'0 0.0
2018-Jun-24 09:27N 37°57' E 023°36'0 0.0
2018-Jun-24 08:59N 37°57' E 023°36'0 0.0
2018-Jun-24 08:28N 37°57' E 023°36'0 0.0
2018-Jun-24 07:59N 37°57' E 023°36'0 0.0
2018-Jun-24 07:26N 37°57' E 023°36'0 0.0
2018-Jun-24 07:00N 37°57' E 023°36'0 0.0
2018-Jun-24 06:28N 37°57' E 023°36'0 0.0
2018-Jun-24 06:00N 37°57' E 023°36'0 0.0
2018-Jun-24 05:30N 37°57' E 023°36'4 7.1
2018-Jun-24 05:00N 37°54' E 023°38'612.7
2018-Jun-24 04:30N 37°48' E 023°41'31 1.0
2018-Jun-22 21:01N 37°17' E 023°39'1213.3
2018-Jun-22 20:06N 37°29' E 023°41'113.2
2018-Jun-22 20:00N 37°30' E 023°41'713.4
2018-Jun-22 19:30N 37°37' E 023°41'612.9
2018-Jun-22 19:00N 37°43' E 023°39'612.9
2018-Jun-22 18:30N 37°50' E 023°37'612.9
2018-Jun-22 18:00N 37°56' E 023°36'1 2.6
2018-Jun-22 17:30N 37°57' E 023°36'0 0.0
2018-Jun-22 16:58N 37°57' E 023°36'0 0.0
2018-Jun-22 16:23N 37°57' E 023°36'0 0.0
2018-Jun-22 15:56N 37°57' E 023°36'0 0.0
2018-Jun-22 15:29N 37°57' E 023°36'0 0.0
2018-Jun-22 14:53N 37°57' E 023°36'0 0.0
2018-Jun-22 14:28N 37°57' E 023°36'0 0.0
2018-Jun-22 13:57N 37°57' E 023°36'0 0.0
2018-Jun-22 13:30N 37°57' E 023°36'0 0.0
2018-Jun-22 13:00N 37°57' E 023°36'0 0.0
2018-Jun-22 12:30N 37°57' E 023°36'0 0.0
2018-Jun-22 12:00N 37°57' E 023°36'0 0.0
2018-Jun-22 11:24N 37°57' E 023°36'0 0.0
2018-Jun-22 11:00N 37°57' E 023°36'0 0.0
2018-Jun-22 10:30N 37°57' E 023°36'0 0.0
2018-Jun-22 09:59N 37°57' E 023°36'0 0.0
2018-Jun-22 09:29N 37°57' E 023°36'0 0.0
2018-Jun-22 09:00N 37°57' E 023°36'0 0.0
2018-Jun-22 08:29N 37°57' E 023°36'0 0.0
2018-Jun-22 07:58N 37°57' E 023°36'0 0.0
2018-Jun-22 07:25N 37°57' E 023°36'0 0.0
2018-Jun-22 07:00N 37°57' E 023°36'0 0.0
2018-Jun-22 06:30N 37°57' E 023°36'0 0.0
2018-Jun-22 06:00N 37°57' E 023°36'0 0.0
2018-Jun-22 05:23N 37°57' E 023°36'0 0.8
2018-Jun-22 05:00N 37°57' E 023°36'612.3
2018-Jun-22 04:31N 37°51' E 023°39'18 0.6
2018-Jun-20 20:06N 37°34' E 023°43'113.1
2018-Jun-20 20:00N 37°35' E 023°42'713.1
2018-Jun-20 19:30N 37°41' E 023°41'713.3
2018-Jun-20 19:00N 37°48' E 023°38'713.2
2018-Jun-20 18:30N 37°54' E 023°36'3 6.4
2018-Jun-20 18:00N 37°57' E 023°36'0 0.0
2018-Jun-20 17:30N 37°57' E 023°36'0 0.0
2018-Jun-20 16:55N 37°57' E 023°36'0 0.0
2018-Jun-20 16:30N 37°57' E 023°36'0 0.0
2018-Jun-20 15:57N 37°57' E 023°36'0 0.0
2018-Jun-20 15:26N 37°57' E 023°36'0 0.0
2018-Jun-20 14:58N 37°57' E 023°36'0 0.0
2018-Jun-20 14:27N 37°57' E 023°36'0 0.0
2018-Jun-20 13:58N 37°57' E 023°36'0 0.0
2018-Jun-20 13:30N 37°57' E 023°36'0 0.0
2018-Jun-20 12:53N 37°57' E 023°36'0 0.0
2018-Jun-20 12:28N 37°57' E 023°36'0 0.0
2018-Jun-20 12:00N 37°57' E 023°36'0 0.0
2018-Jun-20 11:26N 37°57' E 023°36'0 0.0
2018-Jun-20 11:00N 37°57' E 023°36'0 0.0
2018-Jun-20 10:23N 37°57' E 023°36'0 0.0
2018-Jun-20 09:59N 37°57' E 023°36'0 0.0
2018-Jun-20 09:24N 37°57' E 023°36'0 0.0
2018-Jun-20 08:58N 37°57' E 023°36'0 0.0
2018-Jun-20 08:29N 37°57' E 023°36'0 0.0
2018-Jun-20 08:00N 37°57' E 023°36'0 0.0
2018-Jun-20 07:25N 37°57' E 023°36'0 0.0
2018-Jun-20 07:00N 37°57' E 023°36'0 0.3
2018-Jun-20 06:30N 37°57' E 023°36'5 9.9
2018-Jun-20 06:00N 37°53' E 023°38'713.3
2018-Jun-20 05:30N 37°47' E 023°42'5112.6
2018-Jun-20 01:25N 37°31' E 024°44'613.8
2018-Jun-20 00:59N 37°31' E 024°51'611.5
2018-Jun-20 00:27N 37°27' E 024°57'6 7.1
2018-Jun-19 23:35N 37°30' E 025°04'113.5
2018-Jun-19 23:30N 37°30' E 025°05'3 6.7
2018-Jun-19 23:00N 37°32' E 025°09'612.9
2018-Jun-19 22:30N 37°29' E 025°16'3 5.0
2018-Jun-19 21:58N 37°28' E 025°19'2 4.1
2018-Jun-19 21:30N 37°27' E 025°18'612.6
2018-Jun-19 21:00N 37°20' E 025°16'612.9
2018-Jun-19 20:30N 37°14' E 025°13'5 3.1
2018-Jun-19 18:49N 37°09' E 025°13'412.9
2018-Jun-19 18:30N 37°09' E 025°18'5 9.2
2018-Jun-19 18:00N 37°06' E 025°22'3 5.9
2018-Jun-19 17:30N 37°05' E 025°19'5 0.4
2018-Jun-19 02:16N 36°59' E 025°19'313.2
2018-Jun-19 02:00N 37°03' E 025°18'5 9.5
2018-Jun-19 01:30N 37°06' E 025°22'4 9.2
2018-Jun-19 01:00N 37°10' E 025°19'7 3.5
2018-Jun-18 23:03N 37°13' E 025°11'113.4
2018-Jun-18 22:58N 37°14' E 025°12'613.5
2018-Jun-18 22:30N 37°19' E 025°15'713.5
2018-Jun-18 22:01N 37°26' E 025°17'3 5.1
2018-Jun-18 21:30N 37°28' E 025°19'611.5
2018-Jun-18 21:00N 37°30' E 025°13'4 7.2
2018-Jun-18 20:29N 37°32' E 025°09'1012.8
2018-Jun-18 19:41N 37°26' E 024°58'1 2.1
2018-Jun-18 19:24N 37°26' E 024°57'710.7
2018-Jun-18 18:45N 37°31' E 024°51'313.0
2018-Jun-18 18:30N 37°31' E 024°47'5112.8
2018-Jun-18 14:29N 37°40' E 023°43'613.0
2018-Jun-18 14:00N 37°45' E 023°39'613.0
2018-Jun-18 13:31N 37°51' E 023°37'611.6
2018-Jun-18 13:00N 37°57' E 023°36'0 0.2
2018-Jun-18 12:27N 37°57' E 023°36'0 0.0
2018-Jun-18 11:59N 37°57' E 023°36'0 0.0
2018-Jun-18 11:24N 37°57' E 023°36'0 0.0
2018-Jun-18 10:58N 37°57' E 023°36'0 0.0
2018-Jun-18 10:29N 37°57' E 023°36'0 0.0
2018-Jun-18 09:58N 37°57' E 023°36'0 0.0
2018-Jun-18 09:27N 37°57' E 023°36'0 0.0
2018-Jun-18 08:59N 37°57' E 023°36'0 0.0
2018-Jun-18 08:28N 37°57' E 023°36'0 0.0
2018-Jun-18 07:58N 37°57' E 023°36'0 0.0
2018-Jun-18 07:29N 37°57' E 023°36'0 0.0
2018-Jun-18 06:57N 37°57' E 023°36'0 0.0
2018-Jun-18 06:17N 37°57' E 023°36'0 0.0
2018-Jun-18 05:55N 37°57' E 023°36'0 0.0
2018-Jun-18 05:28N 37°57' E 023°36'0 0.0
2018-Jun-18 05:00N 37°57' E 023°36'0 0.0
2018-Jun-18 04:28N 37°57' E 023°36'0 0.0
2018-Jun-18 03:56N 37°57' E 023°36'0 0.0
2018-Jun-18 03:25N 37°57' E 023°36'0 0.0
2018-Jun-18 02:59N 37°57' E 023°36'0 0.0
2018-Jun-18 02:29N 37°57' E 023°36'0 0.0
2018-Jun-18 01:59N 37°57' E 023°36'0 0.0
2018-Jun-18 01:26N 37°57' E 023°36'0 0.0
2018-Jun-18 00:59N 37°57' E 023°36'0 0.0
2018-Jun-18 00:29N 37°57' E 023°36'0 0.0
2018-Jun-17 23:59N 37°57' E 023°36'0 0.0
2018-Jun-17 23:24N 37°57' E 023°36'0 0.0
2018-Jun-17 23:00N 37°57' E 023°36'0 0.0
2018-Jun-17 22:28N 37°57' E 023°36'0 0.0
2018-Jun-17 21:57N 37°57' E 023°36'0 0.0
2018-Jun-17 21:30N 37°57' E 023°36'0 0.0
2018-Jun-17 20:58N 37°57' E 023°36'0 0.0
2018-Jun-17 20:29N 37°57' E 023°36'0 0.0
2018-Jun-17 19:56N 37°57' E 023°36'0 0.0
2018-Jun-17 19:29N 37°57' E 023°36'0 0.0
2018-Jun-17 18:59N 37°57' E 023°36'0 0.0
2018-Jun-17 18:30N 37°57' E 023°36'0 0.0
2018-Jun-17 17:59N 37°57' E 023°36'0 0.0
2018-Jun-17 17:24N 37°57' E 023°36'0 0.0
2018-Jun-17 16:54N 37°57' E 023°36'0 0.0
2018-Jun-17 16:28N 37°57' E 023°36'0 0.0
2018-Jun-17 15:59N 37°57' E 023°36'0 0.0
2018-Jun-17 15:24N 37°57' E 023°36'0 0.0
2018-Jun-17 14:57N 37°57' E 023°36'0 0.0
2018-Jun-17 14:30N 37°57' E 023°36'0 0.0
2018-Jun-17 13:53N 37°57' E 023°36'0 0.0
2018-Jun-17 13:23N 37°57' E 023°36'0 0.0
2018-Jun-17 12:59N 37°57' E 023°36'0 0.0
2018-Jun-17 12:30N 37°57' E 023°36'0 0.0
2018-Jun-17 11:56N 37°57' E 023°36'0 0.0
2018-Jun-17 11:25N 37°57' E 023°36'0 0.0
2018-Jun-17 11:00N 37°57' E 023°36'0 0.0
2018-Jun-17 10:30N 37°57' E 023°36'0 0.0
2018-Jun-17 09:59N 37°57' E 023°36'0 0.0
2018-Jun-17 09:30N 37°57' E 023°36'0 0.0
2018-Jun-17 08:58N 37°57' E 023°36'0 0.0
2018-Jun-17 08:30N 37°57' E 023°36'0 0.0
2018-Jun-17 07:59N 37°57' E 023°36'0 0.0
2018-Jun-17 07:29N 37°57' E 023°36'0 0.0
2018-Jun-17 07:00N 37°57' E 023°36'0 0.0
2018-Jun-17 06:29N 37°57' E 023°36'0 0.8
2018-Jun-17 06:00N 37°57' E 023°36'713.0
2018-Jun-17 05:30N 37°51' E 023°39'13 0.4
2018-Jun-15 19:38N 37°38' E 023°42'313.5
2018-Jun-15 19:23N 37°41' E 023°41'513.4
2018-Jun-15 19:00N 37°46' E 023°39'612.9
2018-Jun-15 18:30N 37°52' E 023°37'510.5
2018-Jun-15 18:00N 37°57' E 023°36'0 0.2
2018-Jun-15 17:30N 37°57' E 023°36'0 0.0
2018-Jun-15 17:00N 37°57' E 023°36'0 0.0
2018-Jun-15 16:28N 37°57' E 023°36'0 0.0
2018-Jun-15 15:59N 37°57' E 023°36'0 0.0
2018-Jun-15 15:29N 37°57' E 023°36'0 0.0
2018-Jun-15 15:00N 37°57' E 023°36'0 0.0
2018-Jun-15 14:30N 37°57' E 023°36'0 0.0
2018-Jun-15 13:57N 37°57' E 023°36'0 0.0
2018-Jun-15 13:25N 37°57' E 023°36'0 0.0
2018-Jun-15 13:00N 37°57' E 023°36'0 0.0
2018-Jun-15 12:27N 37°57' E 023°36'0 0.0
2018-Jun-15 11:59N 37°57' E 023°36'0 0.0
2018-Jun-15 11:30N 37°57' E 023°36'0 0.0
2018-Jun-15 10:57N 37°57' E 023°36'0 0.0
2018-Jun-15 10:28N 37°57' E 023°36'0 0.0
2018-Jun-15 09:55N 37°57' E 023°36'0 0.0
2018-Jun-15 09:26N 37°57' E 023°36'0 0.0
2018-Jun-15 08:59N 37°57' E 023°36'0 0.0
2018-Jun-15 08:30N 37°57' E 023°36'0 0.0
2018-Jun-15 07:56N 37°57' E 023°36'0 0.0
2018-Jun-15 07:23N 37°57' E 023°36'0 0.0
2018-Jun-15 06:54N 37°57' E 023°36'0 0.0
2018-Jun-15 06:17N 37°57' E 023°36'0 0.0
2018-Jun-15 06:00N 37°57' E 023°36'0 0.0
2018-Jun-15 05:29N 37°57' E 023°36'0 0.3
2018-Jun-15 05:00N 37°57' E 023°36'611.7
2018-Jun-15 04:30N 37°52' E 023°39'  

Dump ship's entire track history